Time;durP1;ratioP1;P1;durP2;ratioP2;P2;SDS_P1;SDS_P2;PMS_P1;PMS_P2;Temp;Humidity;BMP_temperature;BMP_pressure;BME280_temperature;BME280_humidity;BME280_pressure;Samples;Min_cycle;Max_cycle;Signal;HPM_P1;HPM_P2
2021/10/11 00:00:13;;;;;;;17.10;15.40;;;7.70;59.20;;;;;;5031262;28;20184;-84
2021/10/11 00:02:39;;;;;;;16.27;14.77;;;7.70;59.80;;;;;;5031260;28;20172;-85
2021/10/11 00:05:06;;;;;;;16.30;14.70;;;7.60;59.50;;;;;;5031625;28;20190;-85
2021/10/11 00:07:32;;;;;;;18.23;16.30;;;7.50;60.20;;;;;;5031710;28;20451;-85
2021/10/11 00:09:58;;;;;;;18.53;14.80;;;7.60;59.90;;;;;;5031777;28;20430;-85
2021/10/11 00:12:24;;;;;;;15.43;14.07;;;7.60;60.00;;;;;;5032076;28;20172;-85
2021/10/11 00:14:52;;;;;;;16.47;14.93;;;7.70;59.90;;;;;;5031285;28;20419;-85
2021/10/11 00:17:17;;;;;;;16.70;14.90;;;7.60;59.90;;;;;;5030843;28;20467;-84
2021/10/11 00:19:43;;;;;;;16.77;15.17;;;7.60;59.90;;;;;;5031726;28;20430;-85
2021/10/11 00:22:10;;;;;;;16.57;14.97;;;7.60;59.90;;;;;;5030768;28;20172;-85
2021/10/11 00:24:35;;;;;;;16.27;14.57;;;7.60;59.90;;;;;;5047648;28;20198;-86
2021/10/11 00:27:01;;;;;;;17.00;15.30;;;7.60;59.90;;;;;;5031226;28;20431;-86
2021/10/11 00:29:26;;;;;;;16.73;15.23;;;7.60;59.90;;;;;;5031884;28;20175;-86
2021/10/11 00:31:52;;;;;;;17.73;14.50;;;7.50;59.80;;;;;;5031208;28;20192;-85
2021/10/11 00:34:18;;;;;;;16.07;14.47;;;7.50;59.80;;;;;;5031083;28;20184;-86
2021/10/11 00:36:43;;;;;;;18.53;14.87;;;7.50;60.30;;;;;;5031336;28;20562;-85
2021/10/11 00:39:09;;;;;;;17.57;15.97;;;7.50;60.50;;;;;;5032507;28;20516;-86
2021/10/11 00:41:35;;;;;;;17.27;15.73;;;7.50;60.70;;;;;;5032163;28;20429;-85
2021/10/11 00:44:02;;;;;;;15.40;13.83;;;7.50;60.50;;;;;;5031425;28;20223;-84
2021/10/11 00:46:27;;;;;;;15.93;14.30;;;7.40;60.30;;;;;;5031173;28;20211;-85
2021/10/11 00:48:53;;;;;;;15.87;14.37;;;7.50;60.80;;;;;;5030678;28;20432;-85
2021/10/11 00:51:19;;;;;;;16.20;14.50;;;7.40;60.40;;;;;;5031241;28;20291;-85
2021/10/11 00:53:45;;;;;;;15.83;14.43;;;7.40;60.20;;;;;;5031415;28;20420;-85
2021/10/11 00:56:11;;;;;;;15.83;14.30;;;7.40;60.00;;;;;;5031491;28;20451;-84
2021/10/11 00:58:36;;;;;;;16.80;15.10;;;7.30;60.00;;;;;;5033257;28;20813;-85
2021/10/11 01:01:02;;;;;;;15.57;14.00;;;7.20;60.60;;;;;;5035734;28;20686;-85
2021/10/11 01:03:28;;;;;;;15.80;14.30;;;7.20;60.10;;;;;;5035446;28;20177;-85
2021/10/11 01:05:54;;;;;;;15.80;14.30;;;7.30;60.60;;;;;;5035175;28;20422;-84
2021/10/11 01:08:20;;;;;;;16.00;14.50;;;7.30;59.70;;;;;;5034835;28;20180;-85
2021/10/11 01:10:47;;;;;;;17.10;15.43;;;7.20;60.10;;;;;;5034643;28;20416;-85
2021/10/11 01:13:14;;;;;;;17.83;16.07;;;7.20;60.60;;;;;;5034478;28;20778;-85
2021/10/11 01:15:40;;;;;;;16.65;15.15;;;7.10;60.30;;;;;;5035103;28;20468;-85
2021/10/11 01:18:05;;;;;;;17.33;15.60;;;7.10;60.80;;;;;;5034910;28;20175;-84
2021/10/11 01:20:31;;;;;;;16.83;15.23;;;7.20;60.80;;;;;;5034739;28;20180;-85
2021/10/11 01:22:57;;;;;;;16.97;15.20;;;7.10;60.80;;;;;;5034827;28;20428;-85
2021/10/11 01:25:22;;;;;;;16.10;14.57;;;7.10;60.50;;;;;;5036021;28;20259;-85
2021/10/11 01:27:48;;;;;;;17.30;14.00;;;7.10;61.10;;;;;;5034385;28;20176;-85
2021/10/11 01:30:15;;;;;;;15.80;14.30;;;7.10;60.60;;;;;;5034309;28;20200;-84
2021/10/11 01:32:42;;;;;;;15.63;14.13;;;7.10;60.80;;;;;;5034226;28;20211;-85
2021/10/11 01:35:09;;;;;;;17.03;15.37;;;7.10;61.20;;;;;;5033971;28;20930;-85
2021/10/11 01:37:35;;;;;;;16.30;14.90;;;7.00;61.50;;;;;;5033807;28;20462;-85
2021/10/11 01:40:03;;;;;;;16.50;15.00;;;7.10;61.20;;;;;;5033934;28;20411;-85
2021/10/11 01:42:29;;;;;;;18.63;16.27;;;7.10;61.50;;;;;;5034523;28;20419;-85
2021/10/11 01:44:55;;;;;;;17.90;16.20;;;7.00;60.70;;;;;;5033995;28;20469;-85
2021/10/11 01:47:23;;;;;;;18.63;16.80;;;6.90;61.60;;;;;;5033968;28;20182;-86
2021/10/11 01:49:48;;;;;;;16.97;15.33;;;7.00;61.80;;;;;;5034114;28;20180;-85
2021/10/11 01:52:14;;;;;;;18.10;16.40;;;7.00;61.40;;;;;;5034172;28;20427;-85
2021/10/11 01:54:39;;;;;;;18.77;16.87;;;7.00;60.80;;;;;;5033358;28;20781;-85
2021/10/11 01:57:05;;;;;;;15.80;14.30;;;7.10;61.30;;;;;;5033707;28;20196;-85
2021/10/11 01:59:31;;;;;;;15.57;13.97;;;7.00;61.80;;;;;;5034057;28;20180;-85
2021/10/11 02:01:56;;;;;;;16.90;15.20;;;6.90;61.50;;;;;;5034204;28;20546;-85
2021/10/11 02:04:22;;;;;;;15.90;14.40;;;6.90;61.70;;;;;;5033534;28;20184;-85
2021/10/11 02:06:47;;;;;;;17.40;14.73;;;7.00;61.00;;;;;;5034029;28;20196;-85
2021/10/11 02:09:13;;;;;;;18.90;15.63;;;7.00;61.20;;;;;;5033575;28;20184;-84
2021/10/11 02:11:39;;;;;;;15.37;13.97;;;6.90;60.50;;;;;;5033441;28;20206;-85
2021/10/11 02:14:04;;;;;;;16.83;15.23;;;6.90;60.60;;;;;;5033866;28;20216;-84
2021/10/11 02:16:31;;;;;;;17.57;15.97;;;6.80;60.90;;;;;;5033491;28;20423;-85
2021/10/11 02:18:56;;;;;;;16.00;14.50;;;6.80;60.60;;;;;;5033514;28;20542;-84
2021/10/11 02:21:22;;;;;;;16.50;14.80;;;6.80;61.30;;;;;;5033343;28;20453;-84
2021/10/11 02:23:48;;;;;;;16.90;15.40;;;6.80;61.20;;;;;;5033015;28;20413;-84
2021/10/11 02:26:13;;;;;;;18.00;16.43;;;6.80;61.20;;;;;;5033396;28;20226;-85
2021/10/11 02:28:39;;;;;;;18.13;16.33;;;6.80;61.30;;;;;;5032404;28;20184;-84
2021/10/11 02:31:05;;;;;;;19.33;15.20;;;6.80;60.30;;;;;;5032793;28;20590;-85
2021/10/11 02:33:31;;;;;;;16.53;15.00;;;6.80;61.40;;;;;;5033120;28;20193;-85
2021/10/11 02:35:56;;;;;;;18.23;16.33;;;6.80;60.50;;;;;;5031552;28;20479;-85
2021/10/11 02:38:23;;;;;;;18.40;16.17;;;6.90;60.30;;;;;;5033127;28;20270;-85
2021/10/11 02:40:49;;;;;;;16.93;15.33;;;6.80;60.40;;;;;;5033331;28;20180;-85
2021/10/11 02:43:14;;;;;;;16.77;15.17;;;6.80;60.70;;;;;;5033878;28;20411;-85
2021/10/11 02:45:40;;;;;;;17.13;15.50;;;6.80;60.70;;;;;;5033446;28;20216;-85
2021/10/11 02:48:06;;;;;;;17.67;16.07;;;6.80;61.30;;;;;;5032566;28;20172;-85
2021/10/11 02:50:32;;;;;;;16.13;14.63;;;6.80;61.20;;;;;;5032284;28;20648;-85
2021/10/11 02:52:58;;;;;;;18.80;17.10;;;6.70;61.60;;;;;;5032143;28;20451;-84
2021/10/11 02:55:24;;;;;;;17.03;15.53;;;6.80;61.80;;;;;;5033059;28;20774;-85
2021/10/11 02:57:49;;;;;;;16.10;14.80;;;6.80;60.70;;;;;;5032202;28;20258;-84
2021/10/11 03:00:15;;;;;;;16.83;15.30;;;6.70;61.30;;;;;;5033356;28;20169;-84
2021/10/11 03:02:40;;;;;;;17.33;15.57;;;6.70;61.80;;;;;;5032175;28;20567;-84
2021/10/11 03:05:06;;;;;;;17.40;15.80;;;6.70;62.00;;;;;;5032247;28;20176;-85
2021/10/11 03:07:32;;;;;;;18.23;16.43;;;6.70;61.30;;;;;;5048481;28;20180;-85
2021/10/11 03:09:58;;;;;;;18.77;16.03;;;6.70;61.70;;;;;;5031991;28;20415;-85
2021/10/11 03:12:23;;;;;;;19.80;16.30;;;6.60;62.00;;;;;;5031807;28;20706;-85
2021/10/11 03:14:51;;;;;;;18.03;16.23;;;6.60;61.90;;;;;;5033528;28;20201;-85
2021/10/11 03:17:16;;;;;;;18.63;17.03;;;6.60;61.80;;;;;;5031548;28;20203;-85
2021/10/11 03:19:42;;;;;;;18.10;16.20;;;6.60;61.20;;;;;;5032151;28;20415;-85
2021/10/11 03:22:07;;;;;;;18.23;16.27;;;6.60;61.30;;;;;;5031885;28;20577;-85
2021/10/11 03:24:33;;;;;;;19.93;18.07;;;6.70;61.50;;;;;;5032115;28;20175;-85
2021/10/11 03:26:59;;;;;;;18.50;16.57;;;6.50;61.10;;;;;;5033401;28;20186;-85
2021/10/11 03:29:25;;;;;;;18.70;16.87;;;6.40;61.00;;;;;;5032078;28;20177;-85
2021/10/11 03:31:50;;;;;;;18.37;16.47;;;6.30;61.50;;;;;;5031654;28;20196;-85
2021/10/11 03:34:16;;;;;;;18.10;16.27;;;6.50;62.20;;;;;;5031379;28;20561;-85
2021/10/11 03:36:42;;;;;;;17.07;15.27;;;6.60;61.00;;;;;;5031493;28;20197;-85
2021/10/11 03:39:08;;;;;;;17.10;15.47;;;6.50;61.60;;;;;;5031386;28;20188;-84
2021/10/11 03:41:35;;;;;;;17.50;15.90;;;6.50;61.50;;;;;;5032977;28;20415;-81
2021/10/11 03:44:03;;;;;;;17.83;16.13;;;6.50;62.00;;;;;;5032317;28;20206;-81
2021/10/11 03:46:29;;;;;;;18.13;16.47;;;6.50;61.80;;;;;;5031859;28;20429;-85
2021/10/11 03:48:55;;;;;;;17.33;15.63;;;6.50;62.00;;;;;;5031107;28;20760;-85
2021/10/11 03:51:21;;;;;;;18.23;16.27;;;6.50;62.50;;;;;;5032979;28;20467;-84
2021/10/11 03:53:50;;;;;;;24.63;22.07;;;6.40;62.20;;;;;;5032064;28;20231;-85
2021/10/11 03:56:16;;;;;;;19.63;17.50;;;6.40;62.30;;;;;;5031782;28;20600;-84
2021/10/11 03:58:42;;;;;;;19.83;17.83;;;6.40;62.70;;;;;;5031843;28;20490;-85
2021/10/11 04:01:07;;;;;;;20.93;18.93;;;6.40;61.90;;;;;;5032328;28;20181;-84
2021/10/11 04:03:33;;;;;;;20.30;18.50;;;6.40;62.20;;;;;;5033341;28;20168;-85
2021/10/11 04:05:59;;;;;;;17.60;16.00;;;6.40;61.70;;;;;;5032395;28;20169;-84
2021/10/11 04:08:34;;;;;;;19.20;17.20;;;6.40;61.80;;;;;;5032131;28;20850;-85
2021/10/11 04:11:44;;;;;;;20.43;18.43;;;6.40;61.60;;;;;;5032604;28;20486;-85
2021/10/11 04:13:45;;;;;;;19.93;18.20;;;6.50;61.80;;;;;;5032268;28;20490;-85
2021/10/11 04:16:11;;;;;;;18.90;17.13;;;6.50;61.30;;;;;;5031735;28;20460;-85
2021/10/11 04:18:37;;;;;;;19.37;17.47;;;6.50;62.10;;;;;;5031529;28;20192;-85
2021/10/11 04:21:03;;;;;;;20.00;18.10;;;6.50;60.40;;;;;;5031349;28;20772;-85
2021/10/11 04:23:30;;;;;;;19.43;17.57;;;6.40;60.80;;;;;;5031017;28;20176;-81
2021/10/11 04:25:56;;;;;;;18.83;17.03;;;6.40;61.00;;;;;;5031313;28;20419;-81
2021/10/11 04:28:22;;;;;;;19.60;17.70;;;6.40;61.20;;;;;;5031099;28;20500;-81
2021/10/11 04:30:48;;;;;;;20.17;18.23;;;6.40;61.20;;;;;;5031594;28;20969;-81
2021/10/11 04:33:14;;;;;;;20.60;18.63;;;6.30;62.20;;;;;;5031164;28;20405;-81
2021/10/11 04:35:41;;;;;;;20.10;17.87;;;6.40;62.00;;;;;;5035002;28;20271;-81
2021/10/11 04:38:07;;;;;;;20.00;18.20;;;6.40;61.90;;;;;;5034827;28;20434;-81
2021/10/11 04:40:33;;;;;;;21.13;19.17;;;6.40;61.80;;;;;;5035001;28;20803;-82
2021/10/11 04:42:59;;;;;;;22.07;19.97;;;6.50;61.00;;;;;;5035384;28;20422;-82
2021/10/11 04:45:31;;;;;;;20.33;18.27;;;6.40;61.80;;;;;;5034810;28;20415;-81
2021/10/11 04:48:03;;;;;;;19.80;17.87;;;6.40;61.40;;;;;;5034449;28;20265;-82
2021/10/11 04:50:31;;;;;;;21.33;19.40;;;6.40;61.20;;;;;;5034666;28;20509;-82
2021/10/11 04:52:57;;;;;;;20.73;18.53;;;6.30;60.70;;;;;;5034926;28;20421;-80
2021/10/11 04:55:23;;;;;;;19.80;17.90;;;6.30;60.80;;;;;;5034474;28;20430;-82
2021/10/11 04:57:49;;;;;;;20.13;18.33;;;6.40;61.70;;;;;;5034827;28;20973;-82
2021/10/11 05:00:15;;;;;;;20.47;18.30;;;6.30;61.10;;;;;;5034703;28;20422;-82
2021/10/11 05:02:41;;;;;;;20.50;18.60;;;6.40;60.50;;;;;;5033954;28;20417;-82
2021/10/11 05:05:07;;;;;;;20.30;18.47;;;6.60;61.00;;;;;;5034134;28;20415;-82
2021/10/11 05:07:34;;;;;;;21.90;19.60;;;6.60;59.70;;;;;;5035630;28;20172;-81
2021/10/11 05:09:59;;;;;;;19.97;18.00;;;6.50;60.10;;;;;;5034490;28;20419;-81
2021/10/11 05:12:25;;;;;;;21.17;19.27;;;6.50;60.20;;;;;;5034728;28;20493;-81
2021/10/11 05:14:51;;;;;;;20.53;18.43;;;6.50;60.90;;;;;;5034502;28;20182;-81
2021/10/11 05:17:17;;;;;;;19.97;18.07;;;6.50;60.50;;;;;;5034053;28;20201;-81
2021/10/11 05:19:42;;;;;;;20.40;18.40;;;6.50;60.60;;;;;;5034110;28;20172;-81
2021/10/11 05:22:08;;;;;;;21.13;19.13;;;6.40;61.30;;;;;;5035619;28;20915;-81
2021/10/11 05:24:34;;;;;;;22.47;20.37;;;6.40;61.10;;;;;;5035675;28;20168;-81
2021/10/11 05:27:00;;;;;;;20.30;18.20;;;6.40;60.40;;;;;;5033515;28;20212;-81
2021/10/11 05:29:25;;;;;;;21.30;18.30;;;6.40;60.30;;;;;;5033836;28;20434;-81
2021/10/11 05:31:52;;;;;;;21.20;19.37;;;6.30;60.60;;;;;;5034277;28;20249;-81
2021/10/11 05:34:18;;;;;;;20.03;18.13;;;6.30;61.10;;;;;;5034482;28;20181;-81
2021/10/11 05:36:44;;;;;;;19.67;17.87;;;6.20;61.70;;;;;;5033723;28;20455;-81
2021/10/11 05:39:10;;;;;;;20.23;18.37;;;6.20;62.60;;;;;;5034301;28;20476;-81
2021/10/11 05:41:36;;;;;;;21.43;19.33;;;6.40;62.10;;;;;;5034287;28;20180;-81
2021/10/11 05:44:01;;;;;;;20.47;18.20;;;6.40;61.70;;;;;;5033347;28;20422;-81
2021/10/11 05:46:27;;;;;;;20.60;18.60;;;6.30;61.90;;;;;;5032563;28;20458;-81
2021/10/11 05:48:53;;;;;;;21.67;19.40;;;6.40;61.50;;;;;;5033846;28;20184;-81
2021/10/11 05:51:18;;;;;;;22.83;20.73;;;6.40;61.60;;;;;;5033356;28;20426;-81
2021/10/11 05:53:44;;;;;;;22.97;20.40;;;6.40;61.90;;;;;;5033839;28;20218;-82
2021/10/11 05:56:10;;;;;;;21.73;19.63;;;6.40;60.90;;;;;;5034044;28;20231;-82
2021/10/11 05:58:35;;;;;;;21.93;19.90;;;6.40;62.10;;;;;;5034242;28;20176;-82
2021/10/11 06:01:01;;;;;;;21.47;19.20;;;6.40;61.10;;;;;;5033824;28;20210;-82
2021/10/11 06:03:26;;;;;;;23.47;21.00;;;6.30;61.40;;;;;;5033495;28;20183;-81
2021/10/11 06:05:52;;;;;;;22.67;20.27;;;6.40;62.50;;;;;;5033246;28;20173;-81
2021/10/11 06:08:19;;;;;;;21.90;19.70;;;6.40;62.40;;;;;;5033097;28;20176;-81
2021/10/11 06:10:48;;;;;;;21.40;19.30;;;6.40;61.80;;;;;;5034547;28;20411;-82
2021/10/11 06:13:20;;;;;;;21.60;19.50;;;6.40;61.80;;;;;;5034430;28;20447;-82
2021/10/11 06:15:48;;;;;;;21.37;19.17;;;6.40;61.90;;;;;;5035756;28;20799;-81
2021/10/11 06:18:14;;;;;;;21.77;19.60;;;6.30;62.10;;;;;;5033322;28;20531;-82
2021/10/11 06:20:40;;;;;;;19.80;17.70;;;6.40;62.50;;;;;;5033625;28;20453;-81
2021/10/11 06:23:06;;;;;;;19.77;17.77;;;6.40;61.30;;;;;;5033575;28;20177;-81
2021/10/11 06:25:31;;;;;;;20.87;18.67;;;6.30;61.60;;;;;;5033382;28;20176;-81
2021/10/11 06:27:57;;;;;;;25.13;18.50;;;6.40;62.00;;;;;;5032402;28;20188;-81
2021/10/11 06:30:23;;;;;;;21.93;19.83;;;6.50;61.90;;;;;;5049032;28;20230;-82
2021/10/11 06:32:48;;;;;;;20.73;18.60;;;6.60;61.30;;;;;;5032577;28;20180;-81
2021/10/11 06:35:14;;;;;;;19.73;17.67;;;6.60;60.90;;;;;;5032658;28;20184;-82
2021/10/11 06:37:40;;;;;;;20.30;18.20;;;6.70;60.10;;;;;;5032483;28;20209;-81
2021/10/11 06:40:07;;;;;;;23.00;19.33;;;6.70;60.20;;;;;;5032623;28;20183;-81
2021/10/11 06:42:33;;;;;;;19.77;17.73;;;6.70;59.60;;;;;;5032370;28;20416;-81
2021/10/11 06:44:58;;;;;;;19.27;17.27;;;6.80;59.90;;;;;;5032521;28;20422;-81
2021/10/11 06:47:24;;;;;;;21.10;17.70;;;6.70;59.60;;;;;;5048962;28;21004;-82
2021/10/11 06:49:50;;;;;;;21.00;18.83;;;6.70;59.60;;;;;;5032726;28;20184;-82
2021/10/11 06:52:15;;;;;;;23.73;19.30;;;6.70;59.20;;;;;;5032581;28;20182;-81
2021/10/11 06:54:41;;;;;;;21.43;19.47;;;6.80;59.90;;;;;;5032661;28;20183;-85
2021/10/11 06:57:08;;;;;;;20.83;18.73;;;6.80;59.20;;;;;;5034424;28;20224;-85
2021/10/11 06:59:38;;;;;;;19.47;17.50;;;7.00;59.40;;;;;;5034067;28;20414;-81
2021/10/11 07:02:04;;;;;;;19.80;17.70;;;7.00;58.20;;;;;;5048988;28;20936;-82
2021/10/11 07:04:30;;;;;;;20.87;18.80;;;7.10;58.60;;;;;;5032709;28;20416;-82
2021/10/11 07:06:56;;;;;;;20.10;17.90;;;7.10;57.70;;;;;;5032186;28;20425;-82
2021/10/11 07:09:21;;;;;;;18.80;16.97;;;7.10;57.60;;;;;;5032763;28;20245;-81
2021/10/11 07:11:50;;;;;;;20.70;18.60;;;7.20;57.80;;;;;;5032149;28;20550;-83
2021/10/11 07:14:19;;;;;;;20.23;18.33;;;7.30;57.60;;;;;;5031821;28;20275;-82
2021/10/11 07:16:46;;;;;;;22.27;18.90;;;7.30;57.10;;;;;;5032298;28;20462;-83
2021/10/11 07:19:13;;;;;;;23.13;20.27;;;7.40;56.30;;;;;;5033232;28;20416;-83
2021/10/11 07:21:40;;;;;;;20.00;17.60;;;7.50;56.80;;;;;;5033170;28;20437;-86
2021/10/11 07:24:05;;;;;;;23.23;19.17;;;7.60;55.90;;;;;;5049606;28;20416;-86
2021/10/11 07:26:31;;;;;;;20.30;18.00;;;7.60;56.10;;;;;;5032496;28;20430;-85
2021/10/11 07:28:56;;;;;;;22.00;18.60;;;7.70;56.00;;;;;;5032317;28;20343;-87
2021/10/11 07:31:22;;;;;;;20.57;18.60;;;7.80;55.90;;;;;;5032295;28;20234;-86
2021/10/11 07:33:48;;;;;;;21.27;19.00;;;7.80;55.60;;;;;;5032140;28;20188;-86
2021/10/11 07:36:13;;;;;;;26.23;17.50;;;7.90;54.70;;;;;;5032003;28;20208;-85
2021/10/11 07:38:39;;;;;;;21.37;19.03;;;7.90;54.70;;;;;;5032830;28;20177;-82
2021/10/11 07:41:04;;;;;;;21.53;18.33;;;7.90;55.30;;;;;;5031597;28;20603;-83
2021/10/11 07:43:30;;;;;;;19.53;17.73;;;7.90;55.10;;;;;;5031562;28;20181;-82
2021/10/11 07:46:02;;;;;;;20.60;18.40;;;8.00;54.60;;;;;;5048396;28;20208;-83
2021/10/11 07:48:28;;;;;;;20.97;18.93;;;8.10;54.10;;;;;;5031585;28;20210;-83
2021/10/11 07:50:54;;;;;;;19.20;17.20;;;8.10;54.30;;;;;;5031558;28;20944;-83
2021/10/11 07:53:19;;;;;;;20.10;18.23;;;8.20;55.50;;;;;;5031696;28;20173;-83
2021/10/11 07:55:45;;;;;;;19.90;17.23;;;8.30;54.70;;;;;;5031540;28;20183;-82
2021/10/11 07:58:11;;;;;;;19.57;17.67;;;8.40;54.50;;;;;;5031004;28;20215;-81
2021/10/11 08:00:36;;;;;;;21.03;18.90;;;8.50;54.30;;;;;;5031518;28;20693;-82
2021/10/11 08:03:02;;;;;;;20.37;18.27;;;8.50;54.20;;;;;;5031081;28;20168;-82
2021/10/11 08:05:28;;;;;;;26.23;18.47;;;8.70;53.80;;;;;;5031401;28;20591;-83
2021/10/11 08:07:53;;;;;;;20.60;18.50;;;8.70;53.10;;;;;;5031529;28;20965;-82
2021/10/11 08:10:19;;;;;;;25.83;18.83;;;8.80;52.90;;;;;;5035997;28;20498;-82
2021/10/11 08:12:45;;;;;;;24.30;21.87;;;8.80;52.20;;;;;;5035679;28;20636;-82
2021/10/11 08:15:11;;;;;;;22.30;18.17;;;8.80;52.60;;;;;;5035763;28;20177;-82
2021/10/11 08:17:37;;;;;;;20.67;18.10;;;8.90;53.10;;;;;;5034843;28;20668;-82
2021/10/11 08:20:05;;;;;;;21.50;18.23;;;8.90;52.60;;;;;;5035463;28;20410;-83
2021/10/11 08:22:31;;;;;;;20.87;18.67;;;9.00;52.80;;;;;;5035040;28;20419;-83
2021/10/11 08:24:57;;;;;;;21.60;18.23;;;9.00;52.70;;;;;;5035269;28;20419;-82
2021/10/11 08:27:22;;;;;;;20.73;18.80;;;9.10;51.90;;;;;;5051331;28;20263;-82
2021/10/11 08:29:52;;;;;;;20.37;18.33;;;9.10;52.10;;;;;;5036371;28;20415;-83
2021/10/11 08:32:23;;;;;;;20.80;18.60;;;9.10;52.00;;;;;;5035070;28;20192;-82
2021/10/11 08:34:49;;;;;;;20.63;18.63;;;9.20;52.00;;;;;;5035171;28;20586;-82
2021/10/11 08:37:15;;;;;;;21.53;19.37;;;9.30;52.70;;;;;;5035065;28;20538;-82
2021/10/11 08:39:41;;;;;;;21.93;19.73;;;9.30;52.40;;;;;;5018624;28;20463;-83
2021/10/11 08:42:08;;;;;;;21.10;19.00;;;9.40;52.50;;;;;;5035175;28;20419;-83
2021/10/11 08:44:33;;;;;;;20.40;17.50;;;9.50;51.90;;;;;;5035221;28;20426;-82
2021/10/11 08:47:00;;;;;;;20.87;18.57;;;9.50;52.00;;;;;;5034760;28;20509;-83
2021/10/11 08:49:26;;;;;;;19.57;17.60;;;9.50;51.20;;;;;;5034826;28;20187;-82
2021/10/11 08:51:52;;;;;;;20.30;18.20;;;9.60;51.50;;;;;;5035154;28;20419;-83
2021/10/11 08:54:17;;;;;;;22.17;18.10;;;9.60;50.20;;;;;;5034838;28;20831;-82
2021/10/11 08:56:43;;;;;;;26.63;18.80;;;9.70;50.70;;;;;;5034339;28;20665;-83
2021/10/11 08:59:09;;;;;;;20.93;18.37;;;9.70;50.90;;;;;;5034869;28;20176;-83
2021/10/11 09:01:34;;;;;;;18.37;16.60;;;9.80;50.10;;;;;;5034685;28;20637;-82
2021/10/11 09:04:20;;;;;;;20.93;18.70;;;9.80;50.80;;;;;;5034579;28;20173;-82
2021/10/11 09:07:09;;;;;;;18.70;16.90;;;10.00;49.90;;;;;;5034356;28;20169;-82
2021/10/11 09:09:45;;;;;;;21.20;19.03;;;10.00;48.00;;;;;;5034789;28;20420;-82
2021/10/11 09:12:29;;;;;;;122.63;55.73;;;10.00;49.20;;;;;;5034055;28;20419;-82
2021/10/11 09:15:07;;;;;;;21.33;19.13;;;10.10;49.70;;;;;;5034339;28;20486;-82
2021/10/11 09:17:42;;;;;;;21.50;19.30;;;10.20;48.80;;;;;;5033957;28;20520;-81
2021/10/11 09:20:39;;;;;;;20.73;17.37;;;10.30;48.40;;;;;;5034129;28;20425;-82
2021/10/11 09:23:06;;;;;;;24.27;16.70;;;10.20;48.20;;;;;;5049478;28;20932;-85
2021/10/11 09:25:34;;;;;;;20.37;18.13;;;10.30;48.90;;;;;;5034409;28;20412;-83
2021/10/11 09:28:00;;;;;;;22.73;16.60;;;10.30;48.80;;;;;;5033638;28;20431;-82
2021/10/11 09:30:31;;;;;;;18.73;16.73;;;10.40;48.20;;;;;;5034160;28;20510;-82
2021/10/11 09:33:10;;;;;;;20.60;17.43;;;10.40;48.90;;;;;;5033732;28;20557;-82
2021/10/11 09:35:37;;;;;;;20.10;18.10;;;10.50;48.70;;;;;;5033626;28;20418;-82
2021/10/11 09:38:03;;;;;;;25.30;16.67;;;10.60;48.30;;;;;;5033254;28;20527;-83
2021/10/11 09:40:38;;;;;;;20.77;18.63;;;10.60;47.70;;;;;;5033753;28;20439;-83
2021/10/11 09:43:17;;;;;;;16.70;14.40;;;10.60;47.40;;;;;;5033440;28;20461;-82
2021/10/11 09:45:44;;;;;;;19.77;17.77;;;10.70;47.90;;;;;;5033405;28;20490;-82
2021/10/11 09:48:11;;;;;;;20.30;18.10;;;10.70;47.10;;;;;;5033331;28;20426;-82
2021/10/11 09:50:38;;;;;;;19.33;17.57;;;10.80;46.80;;;;;;5034977;28;20412;-82
2021/10/11 09:53:06;;;;;;;17.77;15.80;;;10.80;47.10;;;;;;5033573;28;20450;-82
2021/10/11 09:55:37;;;;;;;18.43;14.93;;;10.90;48.30;;;;;;5033814;28;20424;-83
2021/10/11 09:58:03;;;;;;;22.97;18.00;;;11.00;48.00;;;;;;5032921;28;20467;-82
2021/10/11 10:00:29;;;;;;;25.43;17.97;;;11.20;47.30;;;;;;5033250;28;20545;-82
2021/10/11 10:02:56;;;;;;;19.30;17.50;;;11.30;46.70;;;;;;5034938;28;20418;-81
2021/10/11 10:05:54;;;;;;;22.33;18.40;;;11.40;46.90;;;;;;5033213;28;20438;-82
2021/10/11 10:08:25;;;;;;;17.17;15.47;;;11.50;45.70;;;;;;5035037;28;20419;-82
2021/10/11 10:10:56;;;;;;;14.90;13.40;;;11.70;46.10;;;;;;5033109;28;20461;-82
2021/10/11 10:13:26;;;;;;;15.70;14.10;;;11.80;46.00;;;;;;5033312;28;20423;-82
2021/10/11 10:15:55;;;;;;;17.47;15.67;;;11.80;45.40;;;;;;5033315;28;20924;-85
2021/10/11 10:18:22;;;;;;;19.07;17.27;;;11.80;44.60;;;;;;5034592;28;20423;-82
2021/10/11 10:21:00;;;;;;;21.07;17.23;;;11.80;44.90;;;;;;5032959;28;20422;-82
2021/10/11 10:23:31;;;;;;;17.30;15.50;;;11.70;44.90;;;;;;5032748;28;20431;-82
2021/10/11 10:26:00;;;;;;;18.40;16.48;;;11.70;44.90;;;;;;5032074;28;20731;-83
2021/10/11 10:28:45;;;;;;;18.93;16.33;;;11.70;44.40;;;;;;5032574;28;20550;-83
2021/10/11 10:31:24;;;;;;;23.50;15.87;;;11.70;44.90;;;;;;5032104;28;20436;-82
2021/10/11 10:33:50;;;;;;;17.93;16.13;;;11.70;44.30;;;;;;5032595;28;20514;-83
2021/10/11 10:36:30;;;;;;;19.07;17.27;;;11.70;44.80;;;;;;5032444;28;20530;-83
2021/10/11 10:39:00;;;;;;;18.30;16.50;;;11.80;45.50;;;;;;5033462;28;20165;-82
2021/10/11 10:41:27;;;;;;;18.70;17.00;;;11.90;43.70;;;;;;5032684;28;20924;-83
2021/10/11 10:43:53;;;;;;;18.03;16.30;;;12.00;44.20;;;;;;5032117;28;20989;-82
2021/10/11 10:46:18;;;;;;;19.50;17.50;;;12.00;44.30;;;;;;5033723;28;20755;-83
2021/10/11 10:48:52;;;;;;;22.53;16.30;;;12.10;44.10;;;;;;5032494;28;20430;-83
2021/10/11 10:51:19;;;;;;;18.50;14.97;;;12.10;43.40;;;;;;5032472;28;20262;-83
2021/10/11 10:53:54;;;;;;;20.38;18.40;;;12.10;43.00;;;;;;5032023;28;20414;-83
2021/10/11 10:56:20;;;;;;;23.33;14.83;;;12.20;42.00;;;;;;5032191;28;20278;-83
2021/10/11 10:58:46;;;;;;;17.33;15.70;;;12.20;41.50;;;;;;5031799;28;20442;-82
2021/10/11 11:01:12;;;;;;;18.83;17.03;;;12.10;41.70;;;;;;5032291;28;20756;-82
2021/10/11 11:03:38;;;;;;;22.03;14.53;;;12.10;42.20;;;;;;5032023;28;20411;-83
2021/10/11 11:06:06;;;;;;;20.27;16.67;;;12.20;43.00;;;;;;5032202;28;20169;-83
2021/10/11 11:08:32;;;;;;;17.70;15.37;;;12.30;41.80;;;;;;5031789;28;20173;-82
2021/10/11 11:11:03;;;;;;;18.83;16.93;;;12.30;42.30;;;;;;5032082;28;20419;-83
2021/10/11 11:13:28;;;;;;;18.83;17.00;;;12.30;42.60;;;;;;5031902;28;20419;-82
2021/10/11 11:15:54;;;;;;;20.13;18.23;;;12.30;42.20;;;;;;5033356;28;20410;-84
2021/10/11 11:18:22;;;;;;;19.57;17.70;;;12.40;43.40;;;;;;5031849;28;20303;-83
2021/10/11 11:20:49;;;;;;;16.77;15.03;;;12.40;42.50;;;;;;5032203;28;20176;-83
2021/10/11 11:23:20;;;;;;;18.73;16.67;;;12.40;42.20;;;;;;5032155;28;20420;-83
2021/10/11 11:25:48;;;;;;;19.43;17.33;;;12.50;42.00;;;;;;5032157;28;20474;-83
2021/10/11 11:28:28;;;;;;;17.43;15.70;;;12.50;42.00;;;;;;5033035;28;20510;-82
2021/10/11 11:31:00;;;;;;;18.30;15.73;;;12.60;41.40;;;;;;5033201;28;20484;-84
2021/10/11 11:33:29;;;;;;;17.07;15.37;;;12.60;41.70;;;;;;5031813;28;20412;-83
2021/10/11 11:35:57;;;;;;;17.23;15.50;;;12.60;41.30;;;;;;5031706;28;20430;-83
2021/10/11 11:38:29;;;;;;;17.00;15.23;;;12.60;40.80;;;;;;5031484;28;20432;-82
2021/10/11 11:41:02;;;;;;;15.47;13.83;;;12.70;40.80;;;;;;5031605;28;20502;-83
2021/10/11 11:43:37;;;;;;;17.40;15.23;;;12.70;40.80;;;;;;5031509;28;20793;-83
2021/10/11 11:46:04;;;;;;;16.83;15.23;;;12.80;40.90;;;;;;5031900;28;20419;-85
2021/10/11 11:48:36;;;;;;;15.80;14.10;;;12.80;40.00;;;;;;5031293;28;20912;-85
2021/10/11 11:51:08;;;;;;;15.50;13.90;;;12.90;40.80;;;;;;5034449;28;20428;-85
2021/10/11 11:53:36;;;;;;;16.63;13.37;;;12.90;40.50;;;;;;5033859;28;20970;-84
2021/10/11 11:56:04;;;;;;;14.53;13.03;;;12.90;41.00;;;;;;5033446;28;20481;-85
2021/10/11 11:58:32;;;;;;;16.03;14.43;;;12.90;41.90;;;;;;5048044;28;20427;-85
2021/10/11 12:01:13;;;;;;;17.17;15.47;;;12.90;40.50;;;;;;5031488;28;20499;-85
2021/10/11 12:03:47;;;;;;;17.77;14.70;;;13.00;40.40;;;;;;5031405;28;20431;-85
2021/10/11 12:06:14;;;;;;;18.30;14.87;;;13.00;40.70;;;;;;5031622;28;20422;-86
2021/10/11 12:08:42;;;;;;;15.93;14.33;;;13.00;40.60;;;;;;5030957;28;20423;-86
2021/10/11 12:11:08;;;;;;;16.40;14.87;;;13.00;40.70;;;;;;5031245;28;20424;-86
2021/10/11 12:13:42;;;;;;;18.87;16.97;;;13.00;40.30;;;;;;5031631;28;20923;-85
2021/10/11 12:16:11;;;;;;;17.23;14.53;;;13.00;40.60;;;;;;5031802;28;20450;-85
2021/10/11 12:18:47;;;;;;;43.10;14.03;;;13.00;40.40;;;;;;5030791;28;20504;-85
2021/10/11 12:21:30;;;;;;;16.70;13.90;;;13.10;40.00;;;;;;5033416;28;20923;-90
2021/10/11 12:24:05;;;;;;;18.73;16.87;;;13.10;40.00;;;;;;5048315;28;20435;-90
2021/10/11 12:26:31;;;;;;;16.95;15.25;;;13.10;40.70;;;;;;5030740;28;20532;-90
2021/10/11 12:28:59;;;;;;;15.03;13.33;;;13.10;41.00;;;;;;5033817;28;20237;-89
2021/10/11 12:31:28;;;;;;;15.17;13.50;;;13.20;39.90;;;;;;5048239;28;20439;-90
2021/10/11 12:34:04;;;;;;;14.83;13.27;;;13.30;39.70;;;;;;5031663;28;20424;-90